Time;durP1;ratioP1;P1;durP2;ratioP2;P2;SDS_P1;SDS_P2;PMS_P1;PMS_P2;Temp;Humidity;BMP_temperature;BMP_pressure;BME280_temperature;BME280_humidity;BME280_pressure;Samples;Min_cycle;Max_cycle;Signal;HPM_P1;HPM_P2
2023/03/12 00:01:47;;;;;;;9.95;6.18;;;;;;;;;;5084483;28;20019;-67
2023/03/12 00:04:34;;;;;;;12.93;6.38;;;;;;;;;;5082844;28;20088;-69
2023/03/12 00:07:20;;;;;;;13.77;6.82;;;;;;;;;;5097095;28;20059;-69
2023/03/12 00:10:06;;;;;;;12.30;6.57;;;;;;;;;;5098328;28;20027;-70
2023/03/12 00:12:52;;;;;;;11.07;6.70;;;;;;;;;;5082580;28;20024;-69
2023/03/12 00:15:37;;;;;;;11.40;6.38;;;;;;;;;;5096673;28;20031;-69
2023/03/12 00:18:23;;;;;;;10.52;6.78;;;;;;;;;;5096743;28;20349;-69
2023/03/12 00:21:09;;;;;;;9.15;6.45;;;;;;;;;;5096078;28;20437;-68
2023/03/12 00:23:54;;;;;;;12.43;6.63;;;;;;;;;;5096176;28;20023;-68
2023/03/12 00:26:40;;;;;;;12.23;7.05;;;;;;;;;;5096430;28;20460;-68
2023/03/12 00:29:26;;;;;;;15.15;6.95;;;;;;;;;;5095988;28;20028;-69
2023/03/12 00:32:11;;;;;;;10.35;6.75;;;;;;;;;;5096163;28;20022;-68
2023/03/12 00:34:57;;;;;;;10.23;6.63;;;;;;;;;;5096188;28;20475;-68
2023/03/12 00:37:42;;;;;;;18.67;8.07;;;;;;;;;;5096227;28;20091;-70
2023/03/12 00:40:28;;;;;;;10.05;6.13;;;;;;;;;;5095730;28;20016;-68
2023/03/12 00:43:13;;;;;;;12.73;7.03;;;;;;;;;;5096018;28;20028;-68
2023/03/12 00:46:01;;;;;;;12.13;7.20;;;;;;;;;;5095565;28;20413;-67
2023/03/12 00:48:47;;;;;;;14.00;6.13;;;;;;;;;;5095812;28;20035;-69
2023/03/12 00:51:33;;;;;;;11.57;6.65;;;;;;;;;;5095288;28;20024;-68
2023/03/12 00:54:19;;;;;;;11.68;6.75;;;;;;;;;;5095562;28;20016;-69
2023/03/12 00:57:04;;;;;;;13.55;6.32;;;;;;;;;;5095965;28;20399;-69
2023/03/12 00:59:50;;;;;;;11.68;6.15;;;;;;;;;;5095525;28;20432;-69
2023/03/12 01:02:38;;;;;;;9.70;6.35;;;;;;;;;;5095589;28;20028;-70
2023/03/12 01:05:24;;;;;;;12.40;6.70;;;;;;;;;;5095384;28;20031;-68
2023/03/12 01:08:09;;;;;;;9.75;6.28;;;;;;;;;;5095011;28;20109;-69
2023/03/12 01:10:55;;;;;;;13.13;6.45;;;;;;;;;;5081643;28;20031;-68
2023/03/12 01:13:41;;;;;;;15.38;6.10;;;;;;;;;;5095297;28;20020;-67
2023/03/12 01:16:28;;;;;;;10.40;6.03;;;;;;;;;;5095319;28;20027;-69
2023/03/12 01:19:14;;;;;;;12.00;6.43;;;;;;;;;;5095511;28;20039;-68
2023/03/12 01:22:00;;;;;;;11.43;6.70;;;;;;;;;;5093839;28;20104;-67
2023/03/12 01:24:45;;;;;;;11.82;6.32;;;;;;;;;;5095277;28;20024;-68
2023/03/12 01:27:31;;;;;;;19.63;7.13;;;;;;;;;;5095284;28;20440;-68
2023/03/12 01:30:16;;;;;;;15.80;6.38;;;;;;;;;;5095268;28;20024;-68
2023/03/12 01:33:02;;;;;;;14.50;6.45;;;;;;;;;;5094794;28;20023;-68
2023/03/12 01:35:48;;;;;;;10.98;6.38;;;;;;;;;;5094512;28;20016;-69
2023/03/12 01:38:34;;;;;;;21.65;6.50;;;;;;;;;;5095172;28;20039;-69
2023/03/12 01:41:20;;;;;;;11.85;5.90;;;;;;;;;;5094673;28;20020;-68
2023/03/12 01:44:06;;;;;;;12.80;6.13;;;;;;;;;;5095566;28;20032;-67
2023/03/12 01:46:52;;;;;;;11.13;5.55;;;;;;;;;;5095309;28;20020;-67
2023/03/12 01:49:37;;;;;;;13.55;6.75;;;;;;;;;;5095413;28;20027;-68
2023/03/12 01:52:28;;;;;;;10.07;5.95;;;;;;;;;;5080837;28;20391;-68
2023/03/12 01:55:15;;;;;;;10.35;6.15;;;;;;;;;;5094290;28;20062;-68
2023/03/12 01:58:01;;;;;;;11.95;5.90;;;;;;;;;;5093790;28;20047;-67
2023/03/12 02:00:46;;;;;;;10.93;5.95;;;;;;;;;;5095073;28;20467;-68
2023/03/12 02:03:32;;;;;;;10.10;6.05;;;;;;;;;;5094063;28;20031;-69
2023/03/12 02:06:19;;;;;;;8.45;6.15;;;;;;;;;;5094171;28;20520;-69
2023/03/12 02:09:06;;;;;;;12.63;6.35;;;;;;;;;;5095602;28;20028;-70
2023/03/12 02:11:51;;;;;;;10.80;6.05;;;;;;;;;;5094581;28;20016;-68
2023/03/12 02:14:37;;;;;;;10.32;5.82;;;;;;;;;;5094193;28;20387;-69
2023/03/12 02:17:23;;;;;;;11.15;6.22;;;;;;;;;;5093862;28;20022;-70
2023/03/12 02:20:15;;;;;;;12.98;6.47;;;;;;;;;;5097551;28;20020;-68
2023/03/12 02:23:17;;;;;;;9.27;5.78;;;;;;;;;;5099662;28;20023;-69
2023/03/12 02:26:04;;;;;;;15.00;5.95;;;;;;;;;;5098239;28;20024;-68
2023/03/12 02:28:50;;;;;;;12.10;6.22;;;;;;;;;;5098682;28;20508;-68
2023/03/12 02:31:39;;;;;;;7.68;5.22;;;;;;;;;;5098574;28;20444;-68
2023/03/12 02:34:25;;;;;;;12.00;6.10;;;;;;;;;;5098818;28;20020;-69
2023/03/12 02:37:10;;;;;;;11.05;6.25;;;;;;;;;;5084336;28;20061;-68
2023/03/12 02:40:02;;;;;;;7.05;5.45;;;;;;;;;;5098753;28;20106;-67
2023/03/12 02:42:48;;;;;;;11.05;5.90;;;;;;;;;;5084320;28;20020;-69
2023/03/12 02:45:34;;;;;;;9.40;5.25;;;;;;;;;;5098328;28;20027;-69
2023/03/12 02:48:20;;;;;;;10.07;5.90;;;;;;;;;;5084506;28;20048;-68
2023/03/12 02:51:06;;;;;;;14.05;5.78;;;;;;;;;;5098691;28;20042;-69
2023/03/12 02:53:53;;;;;;;12.93;5.53;;;;;;;;;;5098514;28;20332;-69
2023/03/12 02:56:39;;;;;;;12.63;5.63;;;;;;;;;;5098749;28;20043;-68
2023/03/12 02:59:25;;;;;;;7.80;5.18;;;;;;;;;;5083036;28;20008;-69
2023/03/12 03:02:11;;;;;;;8.82;5.18;;;;;;;;;;5097898;28;20089;-68
2023/03/12 03:04:57;;;;;;;13.13;5.45;;;;;;;;;;5098779;28;20103;-69
2023/03/12 03:07:43;;;;;;;13.50;4.90;;;;;;;;;;5097586;28;20439;-68
2023/03/12 03:10:28;;;;;;;10.77;5.75;;;;;;;;;;5097882;28;20024;-69
2023/03/12 03:13:14;;;;;;;12.65;5.05;;;;;;;;;;5082654;28;20421;-69
2023/03/12 03:16:00;;;;;;;13.50;5.15;;;;;;;;;;5082564;28;20127;-68
2023/03/12 03:18:46;;;;;;;13.07;5.40;;;;;;;;;;5098365;28;20048;-66
2023/03/12 03:21:32;;;;;;;9.27;5.25;;;;;;;;;;5097500;28;20031;-69
2023/03/12 03:24:17;;;;;;;8.63;4.82;;;;;;;;;;5083766;28;20023;-68
2023/03/12 03:27:03;;;;;;;98.97;10.15;;;;;;;;;;5097448;28;20383;-68
2023/03/12 03:29:49;;;;;;;13.65;5.03;;;;;;;;;;5096645;28;20490;-68
2023/03/12 03:32:34;;;;;;;7.70;4.43;;;;;;;;;;5097691;28;20036;-67
2023/03/12 03:35:21;;;;;;;9.18;4.38;;;;;;;;;;5097233;28;20310;-69
2023/03/12 03:38:06;;;;;;;10.70;4.65;;;;;;;;;;5083759;28;20020;-68
2023/03/12 03:40:52;;;;;;;13.10;4.95;;;;;;;;;;5097098;28;20017;-68
2023/03/12 03:43:38;;;;;;;15.77;4.80;;;;;;;;;;5097332;28;20108;-69
2023/03/12 03:46:23;;;;;;;8.88;4.45;;;;;;;;;;5095944;28;20020;-68
2023/03/12 03:49:09;;;;;;;6.90;4.70;;;;;;;;;;5097109;28;20078;-66
2023/03/12 03:51:54;;;;;;;8.45;4.90;;;;;;;;;;5096809;28;20073;-68
2023/03/12 03:54:40;;;;;;;18.83;5.70;;;;;;;;;;5097158;28;20017;-69
2023/03/12 03:57:26;;;;;;;8.82;4.70;;;;;;;;;;5096839;28;20029;-68
2023/03/12 04:00:12;;;;;;;7.45;4.68;;;;;;;;;;5097096;28;20063;-68
2023/03/12 04:02:57;;;;;;;9.20;4.47;;;;;;;;;;5096817;28;20035;-68
2023/03/12 04:05:44;;;;;;;11.05;4.43;;;;;;;;;;5096667;28;20020;-69
2023/03/12 04:08:29;;;;;;;9.80;4.68;;;;;;;;;;5097022;28;20098;-67
2023/03/12 04:11:16;;;;;;;9.18;4.13;;;;;;;;;;5097002;28;20039;-67
2023/03/12 04:14:02;;;;;;;5.95;4.07;;;;;;;;;;5096391;28;20053;-69
2023/03/12 04:16:47;;;;;;;10.63;4.63;;;;;;;;;;5081646;28;20016;-69
2023/03/12 04:19:33;;;;;;;8.07;4.47;;;;;;;;;;5096480;28;20020;-69
2023/03/12 04:22:19;;;;;;;7.55;4.35;;;;;;;;;;5096983;28;20055;-68
2023/03/12 04:25:06;;;;;;;9.48;4.60;;;;;;;;;;5082502;28;20028;-68
2023/03/12 04:27:51;;;;;;;14.85;4.72;;;;;;;;;;5082206;28;20023;-67
2023/03/12 04:30:37;;;;;;;12.00;4.45;;;;;;;;;;5096151;28;20119;-68
2023/03/12 04:33:22;;;;;;;7.57;3.72;;;;;;;;;;5096160;28;20395;-69
2023/03/12 04:36:08;;;;;;;11.98;4.50;;;;;;;;;;5096465;28;20325;-69
2023/03/12 04:38:54;;;;;;;9.15;4.35;;;;;;;;;;5096292;28;20024;-68
2023/03/12 04:41:40;;;;;;;6.53;4.22;;;;;;;;;;5080608;28;20016;-69
2023/03/12 04:44:26;;;;;;;8.00;4.60;;;;;;;;;;5082213;28;20032;-68
2023/03/12 04:47:11;;;;;;;8.80;4.30;;;;;;;;;;5095228;28;20043;-68
2023/03/12 04:49:57;;;;;;;9.18;4.50;;;;;;;;;;5082276;28;20081;-68
2023/03/12 04:52:43;;;;;;;15.90;4.47;;;;;;;;;;5095621;28;20016;-69
2023/03/12 04:55:28;;;;;;;9.82;4.05;;;;;;;;;;5095857;28;20420;-69
2023/03/12 04:58:14;;;;;;;7.55;4.07;;;;;;;;;;5096771;28;20106;-68
2023/03/12 05:00:59;;;;;;;9.18;4.25;;;;;;;;;;5095794;28;20368;-69
2023/03/12 05:03:45;;;;;;;8.68;3.95;;;;;;;;;;5094993;28;20456;-68
2023/03/12 05:06:31;;;;;;;8.30;4.32;;;;;;;;;;5094969;28;20063;-68
2023/03/12 05:09:16;;;;;;;9.77;4.10;;;;;;;;;;5095210;28;20028;-69
2023/03/12 05:12:02;;;;;;;13.65;4.68;;;;;;;;;;5095668;28;20051;-67
2023/03/12 05:14:47;;;;;;;18.50;4.80;;;;;;;;;;5095332;28;20077;-69
2023/03/12 05:17:33;;;;;;;8.13;4.20;;;;;;;;;;5095055;28;20058;-69
2023/03/12 05:20:19;;;;;;;8.98;4.82;;;;;;;;;;5095886;28;20348;-69
2023/03/12 05:23:04;;;;;;;8.25;4.40;;;;;;;;;;5094750;28;20016;-67
2023/03/12 05:25:50;;;;;;;13.07;4.50;;;;;;;;;;5095297;28;20035;-69
2023/03/12 05:28:35;;;;;;;7.57;4.07;;;;;;;;;;5095633;28;20035;-69
2023/03/12 05:31:21;;;;;;;8.10;3.97;;;;;;;;;;5094528;28;20031;-69
2023/03/12 05:34:09;;;;;;;8.88;4.00;;;;;;;;;;5094938;28;20048;-68
2023/03/12 05:36:55;;;;;;;9.90;4.75;;;;;;;;;;5094786;28;20404;-68
2023/03/12 05:39:45;;;;;;;6.28;4.13;;;;;;;;;;5094619;28;20436;-70
2023/03/12 05:42:31;;;;;;;9.35;4.20;;;;;;;;;;5094966;28;20084;-67
2023/03/12 05:45:18;;;;;;;9.98;4.38;;;;;;;;;;5094806;28;20016;-68
2023/03/12 05:48:04;;;;;;;10.57;4.53;;;;;;;;;;5093753;28;20020;-69
2023/03/12 05:50:49;;;;;;;5.70;4.32;;;;;;;;;;5081356;28;20082;-68
2023/03/12 05:53:35;;;;;;;10.15;4.95;;;;;;;;;;5094278;28;20028;-68
2023/03/12 05:56:21;;;;;;;9.68;4.82;;;;;;;;;;5080022;28;20081;-70
2023/03/12 05:59:06;;;;;;;7.03;4.50;;;;;;;;;;5094300;28;20022;-69
2023/03/12 06:01:52;;;;;;;7.65;4.80;;;;;;;;;;5094291;28;20024;-69
2023/03/12 06:04:37;;;;;;;10.68;4.30;;;;;;;;;;5094317;28;20024;-68
2023/03/12 06:07:23;;;;;;;9.13;4.25;;;;;;;;;;5093229;28;20349;-69
2023/03/12 06:10:09;;;;;;;11.30;4.35;;;;;;;;;;5094574;28;20039;-67
2023/03/12 06:12:55;;;;;;;10.43;4.20;;;;;;;;;;5094675;28;20032;-69
2023/03/12 06:15:41;;;;;;;7.82;4.38;;;;;;;;;;5095313;28;20031;-69
2023/03/12 06:18:26;;;;;;;8.80;4.43;;;;;;;;;;5094380;28;20015;-69
2023/03/12 06:21:17;;;;;;;10.85;4.28;;;;;;;;;;5094601;28;20051;-67
2023/03/12 06:24:03;;;;;;;8.10;4.60;;;;;;;;;;5079909;28;20095;-67
2023/03/12 06:26:48;;;;;;;5.25;3.75;;;;;;;;;;5094635;28;20013;-68
2023/03/12 06:29:34;;;;;;;7.60;4.53;;;;;;;;;;5093528;28;20023;-69
2023/03/12 06:32:20;;;;;;;8.05;4.43;;;;;;;;;;5094018;28;20082;-69
2023/03/12 06:35:05;;;;;;;16.13;4.63;;;;;;;;;;5094274;28;20077;-67
2023/03/12 06:37:51;;;;;;;6.80;4.15;;;;;;;;;;5095853;28;20030;-69
2023/03/12 06:40:36;;;;;;;7.15;4.45;;;;;;;;;;5093861;28;20449;-69
2023/03/12 06:43:23;;;;;;;12.10;4.57;;;;;;;;;;5080410;28;20024;-67
2023/03/12 06:46:10;;;;;;;8.40;4.00;;;;;;;;;;5094192;28;20394;-69
2023/03/12 06:48:55;;;;;;;8.68;4.10;;;;;;;;;;5093762;28;20028;-68
2023/03/12 06:51:41;;;;;;;11.35;4.30;;;;;;;;;;5079212;28;20016;-69
2023/03/12 06:54:27;;;;;;;14.98;4.28;;;;;;;;;;5094017;28;20086;-69
2023/03/12 06:57:12;;;;;;;6.63;4.20;;;;;;;;;;5093806;28;20024;-68
2023/03/12 06:59:58;;;;;;;11.60;4.28;;;;;;;;;;5093702;28;20030;-69
2023/03/12 07:02:43;;;;;;;10.02;4.18;;;;;;;;;;5079463;28;20036;-69
2023/03/12 07:05:29;;;;;;;8.93;4.60;;;;;;;;;;5098210;28;20082;-68
2023/03/12 07:08:15;;;;;;;6.68;4.10;;;;;;;;;;5069264;28;20056;-70
2023/03/12 07:11:01;;;;;;;5.63;4.07;;;;;;;;;;5077470;28;20094;-69
2023/03/12 07:13:46;;;;;;;9.25;4.38;;;;;;;;;;5078582;28;20035;-68
2023/03/12 07:16:32;;;;;;;9.00;3.83;;;;;;;;;;5064270;28;20086;-69
2023/03/12 07:19:18;;;;;;;11.93;4.28;;;;;;;;;;5077064;28;20096;-69
2023/03/12 07:22:03;;;;;;;7.40;4.43;;;;;;;;;;5063118;28;20021;-69
2023/03/12 07:24:50;;;;;;;11.73;4.47;;;;;;;;;;5081975;28;20016;-70
2023/03/12 07:27:35;;;;;;;8.70;4.40;;;;;;;;;;5079942;28;20432;-68
2023/03/12 07:30:21;;;;;;;6.82;4.47;;;;;;;;;;5076620;28;20067;-69
2023/03/12 07:33:08;;;;;;;8.73;4.10;;;;;;;;;;5062574;28;20407;-71
2023/03/12 07:35:54;;;;;;;9.48;4.50;;;;;;;;;;5077798;28;20437;-69
2023/03/12 07:38:39;;;;;;;8.63;4.28;;;;;;;;;;5081165;28;20108;-70
2023/03/12 07:41:25;;;;;;;6.55;4.68;;;;;;;;;;5078037;28;20047;-69
2023/03/12 07:44:10;;;;;;;6.40;4.43;;;;;;;;;;5077758;28;20103;-70
2023/03/12 07:46:56;;;;;;;13.60;4.72;;;;;;;;;;5062411;28;20021;-69
2023/03/12 07:49:42;;;;;;;10.18;5.85;;;;;;;;;;5062368;28;20123;-68
2023/03/12 07:52:27;;;;;;;9.52;5.82;;;;;;;;;;5076814;28;20031;-69
2023/03/12 07:55:14;;;;;;;8.95;4.10;;;;;;;;;;5075733;28;20111;-70
2023/03/12 07:57:59;;;;;;;7.95;4.45;;;;;;;;;;5077168;28;20028;-69
2023/03/12 08:00:45;;;;;;;8.30;4.85;;;;;;;;;;5076853;28;20020;-69
2023/03/12 08:03:31;;;;;;;32.30;6.28;;;;;;;;;;5077258;28;20029;-69
2023/03/12 08:06:16;;;;;;;15.40;4.78;;;;;;;;;;5081785;28;20122;-69
2023/03/12 08:09:02;;;;;;;14.68;5.78;;;;;;;;;;5096760;28;20027;-70
2023/03/12 08:11:48;;;;;;;35.33;5.53;;;;;;;;;;5083137;28;20020;-70
2023/03/12 08:14:33;;;;;;;6.57;4.50;;;;;;;;;;5096262;28;20020;-70
2023/03/12 08:17:19;;;;;;;7.65;5.22;;;;;;;;;;5095793;28;20012;-69
2023/03/12 08:20:08;;;;;;;8.57;4.80;;;;;;;;;;5096289;28;20109;-69
2023/03/12 08:22:54;;;;;;;8.15;4.47;;;;;;;;;;5082217;28;20088;-69
2023/03/12 08:25:39;;;;;;;8.45;4.53;;;;;;;;;;5080915;28;20020;-71
2023/03/12 08:28:25;;;;;;;9.43;4.90;;;;;;;;;;5097514;28;20367;-69
2023/03/12 08:31:11;;;;;;;7.90;4.53;;;;;;;;;;5115019;28;20347;-68
2023/03/12 08:33:56;;;;;;;7.95;4.72;;;;;;;;;;5116799;27;20047;-68
2023/03/12 08:36:42;;;;;;;32.45;5.65;;;;;;;;;;5100813;28;20031;-69
2023/03/12 08:39:28;;;;;;;12.57;5.78;;;;;;;;;;5115152;28;20016;-70
2023/03/12 08:42:13;;;;;;;14.60;5.78;;;;;;;;;;5100480;28;20413;-70
2023/03/12 08:44:59;;;;;;;12.63;4.88;;;;;;;;;;5114335;28;20058;-70
2023/03/12 08:47:44;;;;;;;26.98;6.13;;;;;;;;;;5114709;28;20020;-69
2023/03/12 08:50:31;;;;;;;10.95;4.85;;;;;;;;;;5114667;28;20024;-70
2023/03/12 08:53:19;;;;;;;5.10;3.95;;;;;;;;;;5091976;28;20462;-69
2023/03/12 08:56:05;;;;;;;7.88;4.85;;;;;;;;;;5114250;28;20035;-69
2023/03/12 08:58:51;;;;;;;7.43;4.38;;;;;;;;;;5099739;28;20430;-69
2023/03/12 09:01:36;;;;;;;7.82;4.25;;;;;;;;;;5115981;28;20038;-70
2023/03/12 09:04:22;;;;;;;9.52;4.40;;;;;;;;;;5116584;28;20027;-69
2023/03/12 09:07:08;;;;;;;7.45;5.00;;;;;;;;;;5115854;28;20130;-69
2023/03/12 09:09:54;;;;;;;8.48;4.78;;;;;;;;;;5100681;28;20019;-70
2023/03/12 09:12:40;;;;;;;14.65;4.95;;;;;;;;;;5116557;27;20084;-70
2023/03/12 09:15:26;;;;;;;6.93;4.60;;;;;;;;;;5115219;28;20047;-72
2023/03/12 09:18:12;;;;;;;6.50;4.72;;;;;;;;;;5116195;28;20085;-70
2023/03/12 09:20:58;;;;;;;7.47;4.60;;;;;;;;;;5115746;28;20080;-70
2023/03/12 09:23:43;;;;;;;7.10;4.88;;;;;;;;;;5115570;28;20055;-69
2023/03/12 09:26:29;;;;;;;7.10;4.40;;;;;;;;;;5115888;28;20019;-69
2023/03/12 09:29:14;;;;;;;8.13;4.72;;;;;;;;;;5117132;28;20019;-67
2023/03/12 09:32:00;;;;;;;7.15;4.50;;;;;;;;;;5115084;28;20475;-69
2023/03/12 09:34:46;;;;;;;6.10;4.40;;;;;;;;;;5115658;28;20125;-70
2023/03/12 09:37:31;;;;;;;8.48;5.05;;;;;;;;;;5100628;28;20039;-69
2023/03/12 09:40:20;;;;;;;9.30;4.88;;;;;;;;;;5116841;28;20029;-70
2023/03/12 09:43:24;;;;;;;6.70;5.25;;;;;;;;;;5099725;28;20015;-70
2023/03/12 09:46:33;;;;;;;7.70;4.88;;;;;;;;;;5113146;28;20020;-69
2023/03/12 09:49:30;;;;;;;11.82;5.10;;;;;;;;;;5116435;28;20055;-69
2023/03/12 09:52:22;;;;;;;12.05;4.95;;;;;;;;;;5113973;28;20126;-69
2023/03/12 09:55:14;;;;;;;6.53;5.00;;;;;;;;;;5115260;28;20015;-68
2023/03/12 09:58:00;;;;;;;9.85;5.60;;;;;;;;;;5115663;28;20069;-69
2023/03/12 10:00:45;;;;;;;7.97;5.10;;;;;;;;;;5115896;28;20050;-69
2023/03/12 10:03:49;;;;;;;7.95;4.82;;;;;;;;;;5115775;28;20025;-69
2023/03/12 10:06:38;;;;;;;8.10;5.60;;;;;;;;;;5115565;28;20055;-69
2023/03/12 10:09:36;;;;;;;7.20;5.00;;;;;;;;;;5115566;28;20040;-68
2023/03/12 10:12:22;;;;;;;10.60;5.38;;;;;;;;;;5115017;28;20082;-70
2023/03/12 10:15:26;;;;;;;8.77;5.30;;;;;;;;;;5115292;28;20035;-68
2023/03/12 10:18:24;;;;;;;16.42;7.15;;;;;;;;;;5114944;28;20049;-69
2023/03/12 10:21:18;;;;;;;12.00;6.68;;;;;;;;;;5115111;28;20019;-70
2023/03/12 10:24:07;;;;;;;9.07;5.55;;;;;;;;;;5114828;28;20115;-69
2023/03/12 10:26:54;;;;;;;8.07;4.97;;;;;;;;;;5114835;28;20028;-69
2023/03/12 10:29:42;;;;;;;9.65;5.68;;;;;;;;;;5114619;28;20034;-69
2023/03/12 10:32:39;;;;;;;8.30;5.63;;;;;;;;;;5114721;28;20016;-69
2023/03/12 10:35:26;;;;;;;10.32;5.88;;;;;;;;;;5100098;28;20176;-69
2023/03/12 10:38:32;;;;;;;14.35;6.63;;;;;;;;;;5100350;28;20375;-70
2023/03/12 10:41:22;;;;;;;13.50;5.72;;;;;;;;;;5117562;28;20016;-69
2023/03/12 10:44:08;;;;;;;7.65;6.05;;;;;;;;;;5119641;27;20024;-70
2023/03/12 10:47:13;;;;;;;8.07;6.20;;;;;;;;;;5120461;28;20019;-69
2023/03/12 10:50:11;;;;;;;9.70;6.13;;;;;;;;;;5117894;28;20012;-69
2023/03/12 10:53:12;;;;;;;9.07;5.97;;;;;;;;;;5118626;28;20026;-68
2023/03/12 10:55:57;;;;;;;17.55;6.05;;;;;;;;;;5118225;28;20023;-69
2023/03/12 10:58:44;;;;;;;8.40;5.60;;;;;;;;;;5119042;28;20103;-69
2023/03/12 11:01:30;;;;;;;11.38;5.90;;;;;;;;;;5103190;28;20020;-69
2023/03/12 11:04:18;;;;;;;8.52;5.30;;;;;;;;;;5119195;28;20098;-70
2023/03/12 11:07:03;;;;;;;26.98;6.88;;;;;;;;;;5116362;28;20035;-70
2023/03/12 11:10:07;;;;;;;11.57;5.70;;;;;;;;;;5117112;28;20063;-68
2023/03/12 11:12:54;;;;;;;12.73;5.85;;;;;;;;;;5118530;28;20034;-71
2023/03/12 11:15:41;;;;;;;8.63;6.00;;;;;;;;;;5118431;28;20078;-69
2023/03/12 11:18:34;;;;;;;8.55;5.80;;;;;;;;;;5118610;28;20024;-69
2023/03/12 11:21:19;;;;;;;9.85;6.40;;;;;;;;;;5118016;28;20496;-69
2023/03/12 11:24:10;;;;;;;10.05;6.10;;;;;;;;;;5116845;28;20012;-69
2023/03/12 11:27:02;;;;;;;10.70;6.40;;;;;;;;;;5118179;28;20106;-72
2023/03/12 11:29:48;;;;;;;12.68;6.72;;;;;;;;;;5117891;28;20039;-70
2023/03/12 11:32:36;;;;;;;10.05;6.85;;;;;;;;;;5117487;28;20359;-69
2023/03/12 11:35:44;;;;;;;10.82;6.97;;;;;;;;;;5118118;28;20084;-69
2023/03/12 11:38:33;;;;;;;11.68;6.45;;;;;;;;;;5119385;28;20027;-71
2023/03/12 11:41:31;;;;;;;11.43;6.50;;;;;;;;;;5119299;28;20452;-71
2023/03/12 11:44:16;;;;;;;11.65;6.28;;;;;;;;;;5117089;28;20024;-69
2023/03/12 11:47:13;;;;;;;16.20;6.90;;;;;;;;;;5117806;28;20347;-70
2023/03/12 11:49:58;;;;;;;15.15;6.45;;;;;;;;;;5117900;28;20038;-70
2023/03/12 11:53:03;;;;;;;8.60;6.20;;;;;;;;;;5103925;28;20051;-70
2023/03/12 11:55:57;;;;;;;8.95;5.63;;;;;;;;;;5117469;28;20428;-70
2023/03/12 11:58:52;;;;;;;11.50;6.05;;;;;;;;;;5116996;28;20027;-70
2023/03/12 12:01:55;;;;;;;8.93;5.45;;;;;;;;;;5117237;28;20093;-70
2023/03/12 12:04:49;;;;;;;8.30;5.78;;;;;;;;;;5119019;27;20095;-70
2023/03/12 12:07:44;;;;;;;9.75;5.53;;;;;;;;;;5101803;28;20055;-70
2023/03/12 12:10:39;;;;;;;8.80;4.15;;;;;;;;;;5116818;28;20402;-69
2023/03/12 12:13:43;;;;;;;11.38;3.83;;;;;;;;;;5116403;28;20122;-69
2023/03/12 12:16:31;;;;;;;7.45;3.90;;;;;;;;;;5116875;28;20016;-70
2023/03/12 12:19:21;;;;;;;9.15;4.28;;;;;;;;;;5116663;28;20459;-69
2023/03/12 12:22:28;;;;;;;5.13;3.70;;;;;;;;;;5116140;28;20085;-69
2023/03/12 12:25:32;;;;;;;6.80;4.75;;;;;;;;;;5117200;28;20027;-69
2023/03/12 12:28:23;;;;;;;7.47;4.25;;;;;;;;;;5116973;28;20396;-70
2023/03/12 12:31:21;;;;;;;11.18;4.35;;;;;;;;;;5116441;28;20027;-69
2023/03/12 12:34:33;;;;;;;7.18;3.83;;;;;;;;;;5116348;28;20027;-69
2023/03/12 12:37:36;;;;;;;5.85;3.50;;;;;;;;;;5117020;28;20145;-70
2023/03/12 12:40:22;;;;;;;7.55;3.50;;;;;;;;;;5117377;28;20020;-69
2023/03/12 12:43:21;;;;;;;8.05;3.80;;;;;;;;;;5116236;28;20027;-70
2023/03/12 12:46:11;;;;;;;9.63;5.05;;;;;;;;;;5116397;28;20057;-69
2023/03/12 12:49:09;;;;;;;8.98;3.33;;;;;;;;;;5076328;28;20035;-69
2023/03/12 12:52:06;;;;;;;6.45;3.40;;;;;;;;;;5074659;28;20031;-70
2023/03/12 12:55:05;;;;;;;5.82;3.00;;;;;;;;;;5075719;28;20031;-69
2023/03/12 12:57:54;;;;;;;8.45;3.33;;;;;;;;;;5075584;28;20012;-69
2023/03/12 13:00:39;;;;;;;6.65;2.85;;;;;;;;;;5075680;28;20062;-69
2023/03/12 13:03:26;;;;;;;24.48;3.97;;;;;;;;;;5074579;28;20052;-69
2023/03/12 13:06:11;;;;;;;12.20;3.30;;;;;;;;;;5075390;28;20055;-69
2023/03/12 13:08:58;;;;;;;6.03;3.10;;;;;;;;;;5075132;28;20028;-69
2023/03/12 13:11:45;;;;;;;6.35;3.70;;;;;;;;;;5075644;28;20025;-70
2023/03/12 13:14:35;;;;;;;35.45;4.47;;;;;;;;;;5075260;28;20396;-69
2023/03/12 13:17:27;;;;;;;8.02;3.15;;;;;;;;;;5082702;28;20019;-70
2023/03/12 13:20:16;;;;;;;7.50;2.92;;;;;;;;;;5100642;28;20379;-68
2023/03/12 13:23:02;;;;;;;7.25;3.60;;;;;;;;;;5100149;28;20035;-69
2023/03/12 13:25:51;;;;;;;5.60;3.15;;;;;;;;;;5115197;28;20078;-69
2023/03/12 13:28:55;;;;;;;4.10;2.90;;;;;;;;;;5099875;28;20081;-70
2023/03/12 13:31:41;;;;;;;3.75;2.70;;;;;;;;;;5100107;28;20087;-72
2023/03/12 13:34:26;;;;;;;7.85;3.35;;;;;;;;;;5115559;28;20026;-71
2023/03/12 13:37:20;;;;;;;5.00;2.90;;;;;;;;;;5115189;28;20027;-72
2023/03/12 13:40:25;;;;;;;5.88;3.28;;;;;;;;;;5100841;28;20028;-71
2023/03/12 13:43:15;;;;;;;4.45;2.80;;;;;;;;;;5099783;28;20035;-71
2023/03/12 13:46:19;;;;;;;61.03;7.03;;;;;;;;;;5113990;28;20107;-71
2023/03/12 13:49:10;;;;;;;11.88;3.20;;;;;;;;;;5113819;28;20028;-71
2023/03/12 13:52:00;;;;;;;23.75;8.75;;;;;;;;;;5100239;28;20059;-70
2023/03/12 13:54:48;;;;;;;5.38;3.42;;;;;;;;;;5100394;28;20417;-70
2023/03/12 13:57:37;;;;;;;4.45;3.30;;;;;;;;;;5114106;28;20095;-70
2023/03/12 14:00:32;;;;;;;3.90;2.83;;;;;;;;;;5115275;28;20072;-72
2023/03/12 14:03:20;;;;;;;6.57;2.85;;;;;;;;;;5115505;28;20023;-71
2023/03/12 14:06:13;;;;;;;6.90;3.10;;;;;;;;;;5115092;28;20043;-71
2023/03/12 14:09:09;;;;;;;8.05;2.88;;;;;;;;;;5100387;28;20023;-71
2023/03/12 14:12:07;;;;;;;4.45;2.80;;;;;;;;;;5100464;28;20109;-70
2023/03/12 14:14:59;;;;;;;10.65;3.40;;;;;;;;;;5120134;28;20098;-71
2023/03/12 14:17:45;;;;;;;8.02;3.25;;;;;;;;;;5107806;28;20020;-72
2023/03/12 14:20:36;;;;;;;6.80;3.60;;;;;;;;;;5121252;28;20021;-71
2023/03/12 14:23:24;;;;;;;4.55;2.92;;;;;;;;;;5120964;28;20169;-70
2023/03/12 14:26:17;;;;;;;6.75;3.40;;;;;;;;;;5107998;27;20031;-72
2023/03/12 14:29:14;;;;;;;19.25;4.68;;;;;;;;;;5121504;28;20464;-71
2023/03/12 14:32:02;;;;;;;5.85;3.58;;;;;;;;;;5106382;28;20031;-71
2023/03/12 14:35:02;;;;;;;5.65;3.35;;;;;;;;;;5120469;28;20463;-72
2023/03/12 14:37:57;;;;;;;4.53;3.40;;;;;;;;;;5122239;28;20028;-71
2023/03/12 14:40:45;;;;;;;6.95;3.50;;;;;;;;;;5122114;28;20077;-71
2023/03/12 14:43:32;;;;;;;4.80;3.40;;;;;;;;;;5107639;28;20019;-70
2023/03/12 14:46:19;;;;;;;5.75;3.20;;;;;;;;;;5107222;28;20077;-71
2023/03/12 14:49:05;;;;;;;4.28;2.80;;;;;;;;;;5120265;28;20034;-70
2023/03/12 14:51:50;;;;;;;4.40;3.60;;;;;;;;;;5121639;28;20024;-71
2023/03/12 14:54:38;;;;;;;44.15;5.25;;;;;;;;;;5106230;28;20016;-72
2023/03/12 14:57:24;;;;;;;29.73;4.82;;;;;;;;;;5107471;28;20024;-72
2023/03/12 15:00:20;;;;;;;11.20;3.63;;;;;;;;;;5121556;28;20165;-71
2023/03/12 15:03:11;;;;;;;33.78;5.22;;;;;;;;;;5121165;28;20039;-70
2023/03/12 15:05:56;;;;;;;10.57;3.00;;;;;;;;;;5105124;28;20110;-71
2023/03/12 15:08:43;;;;;;;7.03;3.35;;;;;;;;;;5104666;28;20049;-70
2023/03/12 15:11:30;;;;;;;6.63;3.70;;;;;;;;;;5105215;28;20029;-70
2023/03/12 15:14:15;;;;;;;6.55;2.95;;;;;;;;;;5120239;28;20028;-71
2023/03/12 15:17:02;;;;;;;8.13;2.85;;;;;;;;;;5120626;28;20158;-71
2023/03/12 15:19:49;;;;;;;8.48;3.47;;;;;;;;;;5122063;27;20112;-70
2023/03/12 15:22:35;;;;;;;7.15;2.85;;;;;;;;;;5119936;28;20073;-70
2023/03/12 15:25:21;;;;;;;6.55;3.30;;;;;;;;;;5118557;28;20360;-70
2023/03/12 15:28:10;;;;;;;4.47;2.88;;;;;;;;;;5117001;28;20015;-71
2023/03/12 15:31:15;;;;;;;5.63;3.15;;;;;;;;;;5103278;28;20093;-70
2023/03/12 15:34:02;;;;;;;16.70;4.05;;;;;;;;;;5117941;28;20020;-71
2023/03/12 15:36:48;;;;;;;9.60;4.32;;;;;;;;;;5117950;28;20019;-70
2023/03/12 15:39:36;;;;;;;14.70;7.68;;;;;;;;;;5119383;28;20020;-70
2023/03/12 15:42:23;;;;;;;10.07;7.05;;;;;;;;;;5118174;28;20431;-71
2023/03/12 15:45:17;;;;;;;4.00;2.83;;;;;;;;;;5101964;28;20440;-70
2023/03/12 15:48:04;;;;;;;6.68;2.90;;;;;;;;;;5101712;28;20024;-70
2023/03/12 15:50:50;;;;;;;4.97;3.20;;;;;;;;;;5117053;28;20020;-70
2023/03/12 15:53:35;;;;;;;8.05;3.30;;;;;;;;;;5117261;28;20172;-70
2023/03/12 15:56:22;;;;;;;5.88;3.53;;;;;;;;;;5117005;28;20011;-71
2023/03/12 15:59:24;;;;;;;4.57;2.83;;;;;;;;;;5117274;28;20019;-72
2023/03/12 16:02:10;;;;;;;6.40;3.20;;;;;;;;;;5117499;28;20098;-71
2023/03/12 16:04:55;;;;;;;4.30;2.90;;;;;;;;;;5117436;28;20027;-71
2023/03/12 16:07:41;;;;;;;5.85;2.90;;;;;;;;;;5115836;28;20480;-71
2023/03/12 16:10:27;;;;;;;10.35;3.25;;;;;;;;;;5101632;28;20026;-70
2023/03/12 16:13:14;;;;;;;5.63;3.20;;;;;;;;;;5101678;28;20020;-70
2023/03/12 16:16:00;;;;;;;7.72;4.05;;;;;;;;;;5117625;28;20030;-70
2023/03/12 16:18:46;;;;;;;7.80;3.75;;;;;;;;;;5116875;28;20034;-71
2023/03/12 16:21:32;;;;;;;7.72;4.00;;;;;;;;;;5116569;28;20444;-71
2023/03/12 16:24:17;;;;;;;25.10;5.40;;;;;;;;;;5117093;28;20153;-70
2023/03/12 16:27:06;;;;;;;9.85;4.30;;;;;;;;;;5115247;28;20022;-71
2023/03/12 16:29:51;;;;;;;6.50;4.15;;;;;;;;;;5116707;28;20027;-71
2023/03/12 16:32:37;;;;;;;6.32;3.88;;;;;;;;;;5116802;28;20037;-70
2023/03/12 16:35:23;;;;;;;8.75;4.40;;;;;;;;;;5117083;28;20061;-71
2023/03/12 16:38:08;;;;;;;10.75;4.70;;;;;;;;;;5124838;28;20444;-71
2023/03/12 16:40:54;;;;;;;21.25;6.13;;;;;;;;;;5118060;28;20024;-71
2023/03/12 16:43:41;;;;;;;9.05;4.15;;;;;;;;;;5116538;28;20042;-70